Time;durP1;ratioP1;P1;durP2;ratioP2;P2;SDS_P1;SDS_P2;PMS_P1;PMS_P2;Temp;Humidity;BMP_temperature;BMP_pressure;BME280_temperature;BME280_humidity;BME280_pressure;Samples;Min_cycle;Max_cycle;Signal;HPM_P1;HPM_P2
2022/10/26 00:01:04;;;;;;;45.03;25.90;;;;;;;11.04;100.00;100036.28;4187362;28;21523;-79
2022/10/26 00:03:32;;;;;;;46.70;25.37;;;;;;;11.07;100.00;100039.47;4206009;28;20311;-79
2022/10/26 00:06:16;;;;;;;55.27;27.37;;;;;;;11.10;100.00;100047.16;4188281;28;20244;-78
2022/10/26 00:08:43;;;;;;;49.47;26.87;;;;;;;11.12;100.00;100044.31;4202103;28;20320;-78
2022/10/26 00:11:11;;;;;;;50.13;27.10;;;;;;;11.13;100.00;100044.16;4202674;28;20316;-76
2022/10/26 00:13:38;;;;;;;46.00;26.17;;;;;;;11.14;100.00;100042.34;4201281;28;20562;-79
2022/10/26 00:16:20;;;;;;;48.57;26.60;;;;;;;11.14;100.00;100045.00;4201211;28;22013;-81
2022/10/26 00:18:46;;;;;;;46.03;25.50;;;;;;;11.18;100.00;100055.19;4193978;28;20243;-79
2022/10/26 00:21:13;;;;;;;47.13;26.87;;;;;;;11.18;100.00;100057.00;4191802;28;20623;-83
2022/10/26 00:23:39;;;;;;;43.40;24.83;;;;;;;11.22;100.00;100058.38;4185026;28;20295;-78
2022/10/26 00:26:06;;;;;;;53.73;27.23;;;;;;;11.18;100.00;100052.50;4195686;28;20411;-79
2022/10/26 00:28:33;;;;;;;46.43;26.67;;;;;;;11.25;100.00;100052.72;4200982;28;20238;-77
2022/10/26 00:31:05;;;;;;;53.70;26.67;;;;;;;11.24;100.00;100056.38;4210119;28;20233;-79
2022/10/26 00:33:31;;;;;;;49.73;27.43;;;;;;;11.23;100.00;100053.88;4200195;28;20767;-76
2022/10/26 00:35:58;;;;;;;50.47;27.90;;;;;;;11.25;100.00;100049.22;4195964;28;20453;-76
2022/10/26 00:38:25;;;;;;;51.00;26.50;;;;;;;11.36;100.00;100055.09;4193756;28;20242;-79
2022/10/26 00:40:51;;;;;;;51.00;25.93;;;;;;;11.26;100.00;100049.06;4199515;28;20236;-81
2022/10/26 00:43:21;;;;;;;46.33;26.33;;;;;;;11.26;100.00;100057.06;4208022;28;20738;-81
2022/10/26 00:45:51;;;;;;;51.57;26.93;;;;;;;11.25;100.00;100050.06;4206734;28;21696;-77
2022/10/26 00:48:25;;;;;;;50.17;27.40;;;;;;;11.26;100.00;100050.88;4200754;28;20240;-79
2022/10/26 00:50:53;;;;;;;59.70;26.87;;;;;;;11.23;100.00;100052.03;4193043;28;20256;-79
2022/10/26 00:53:19;;;;;;;57.90;26.50;;;;;;;11.22;100.00;100045.06;4203807;28;20528;-81
2022/10/26 00:55:48;;;;;;;49.73;27.17;;;;;;;11.24;100.00;100048.41;4203074;28;20434;-78
2022/10/26 00:58:15;;;;;;;48.53;25.73;;;;;;;11.24;100.00;100048.41;4203397;28;20339;-82
2022/10/26 01:00:42;;;;;;;53.13;26.10;;;;;;;11.26;100.00;100051.75;4187193;28;20369;-81
2022/10/26 01:03:09;;;;;;;54.80;26.60;;;;;;;11.20;100.00;100049.69;4193217;28;20324;-82
2022/10/26 01:05:40;;;;;;;46.17;26.90;;;;;;;11.21;100.00;100054.03;4218040;28;24913;-79
2022/10/26 01:08:07;;;;;;;48.90;26.20;;;;;;;11.22;100.00;100052.22;4194390;28;21479;-77
2022/10/26 01:10:34;;;;;;;45.80;26.97;;;;;;;11.19;100.00;100046.22;4196095;28;21131;-81
2022/10/26 01:13:01;;;;;;;46.83;26.40;;;;;;;11.23;100.00;100052.03;4207376;28;22334;-79
2022/10/26 01:15:37;;;;;;;48.97;26.53;;;;;;;11.15;100.00;100057.34;4201255;28;21781;-79
2022/10/26 01:18:11;;;;;;;42.20;25.13;;;;;;;11.19;100.00;100053.34;4208189;28;23583;-80
2022/10/26 01:20:58;;;;;;;47.63;25.70;;;;;;;11.13;100.00;100056.66;4206436;28;20808;-80
2022/10/26 01:24:05;;;;;;;46.87;26.67;;;;;;;11.17;100.00;100058.84;4203963;28;21633;-79
2022/10/26 01:26:51;;;;;;;53.60;26.07;;;;;;;11.13;100.00;100059.31;4218557;28;20258;-79
2022/10/26 01:29:36;;;;;;;46.50;25.87;;;;;;;11.10;100.00;100057.81;4197064;28;22651;-81
2022/10/26 01:32:12;;;;;;;56.73;27.10;;;;;;;11.06;100.00;100055.63;4206593;28;20248;-80
2022/10/26 01:34:44;;;;;;;49.57;24.70;;;;;;;11.09;100.00;100057.97;4217907;28;20609;-80
2022/10/26 01:37:13;;;;;;;48.87;24.40;;;;;;;11.12;100.00;100060.28;4214134;28;20741;-79
2022/10/26 01:39:45;;;;;;;49.47;25.90;;;;;;;11.12;100.00;100065.63;4213668;28;20443;-78
2022/10/26 01:42:12;;;;;;;45.83;26.13;;;;;;;11.03;100.00;100062.09;4208274;28;20233;-80
2022/10/26 01:44:43;;;;;;;48.90;25.67;;;;;;;11.10;100.00;100071.13;4208700;28;20319;-82
2022/10/26 01:47:12;;;;;;;55.90;26.33;;;;;;;11.05;100.00;100069.91;4232881;28;22215;-81
2022/10/26 01:49:54;;;;;;;49.10;24.93;;;;;;;11.09;100.00;100064.09;4209704;28;20229;-79
2022/10/26 01:52:21;;;;;;;44.33;24.97;;;;;;;11.14;100.00;100063.63;4223555;28;20246;-82
2022/10/26 01:54:48;;;;;;;51.40;25.57;;;;;;;11.07;100.00;100062.59;4216699;28;20233;-80
2022/10/26 01:57:18;;;;;;;47.80;25.20;;;;;;;11.06;100.00;100056.44;4191967;28;20236;-79
2022/10/26 02:00:06;;;;;;;48.67;24.90;;;;;;;11.05;100.00;100069.91;4216678;28;20328;-81
2022/10/26 02:03:14;;;;;;;52.13;25.03;;;;;;;10.99;100.00;100056.22;4209652;28;22016;-80
2022/10/26 02:05:44;;;;;;;49.50;25.60;;;;;;;11.08;100.00;100061.63;4169542;28;20284;-83
2022/10/26 02:08:38;;;;;;;54.40;26.90;;;;;;;11.09;100.00;100068.59;4196051;28;21093;-83
2022/10/26 02:11:28;;;;;;;58.00;27.90;;;;;;;11.08;100.00;100074.94;4192748;28;20239;-82
2022/10/26 02:14:13;;;;;;;53.57;27.77;;;;;;;11.06;100.00;100074.25;4178902;28;20228;-81
2022/10/26 02:16:57;;;;;;;54.93;28.80;;;;;;;11.03;100.00;100078.06;4173442;28;20233;-83
2022/10/26 02:19:43;;;;;;;55.67;28.67;;;;;;;11.02;100.00;100080.88;4216740;28;20505;-82
2022/10/26 02:22:15;;;;;;;53.70;31.00;;;;;;;11.01;100.00;100084.56;4197414;28;20231;-83
2022/10/26 02:24:42;;;;;;;57.83;31.60;;;;;;;10.98;100.00;100078.53;4212750;28;20245;-80
2022/10/26 02:27:13;;;;;;;62.37;30.47;;;;;;;10.91;100.00;100082.81;4186802;28;21415;-78
2022/10/26 02:29:40;;;;;;;55.97;30.23;;;;;;;10.97;100.00;100081.34;4188093;28;21799;-80
2022/10/26 02:32:07;;;;;;;53.87;30.07;;;;;;;10.92;100.00;100076.50;4201039;28;20242;-82
2022/10/26 02:34:35;;;;;;;55.70;28.30;;;;;;;10.89;100.00;100074.16;4178576;28;20230;-81
2022/10/26 02:37:03;;;;;;;60.43;29.30;;;;;;;10.95;100.00;100078.84;4208791;28;20234;-79
2022/10/26 02:39:32;;;;;;;53.63;27.93;;;;;;;10.84;100.00;100079.09;4201541;28;20419;-82
2022/10/26 02:42:03;;;;;;;56.53;26.97;;;;;;;10.89;100.00;100082.13;4191489;28;24882;-79
2022/10/26 02:44:41;;;;;;;54.37;28.80;;;;;;;10.83;100.00;100088.06;4207822;28;20302;-80
2022/10/26 02:47:08;;;;;;;53.00;28.30;;;;;;;10.89;100.00;100090.13;4190050;28;20414;-80
2022/10/26 02:49:35;;;;;;;58.93;27.77;;;;;;;10.79;100.00;100084.03;4193380;28;20249;-79
2022/10/26 02:52:09;;;;;;;53.63;26.93;;;;;;;10.76;100.00;100084.34;4197102;28;20474;-80
2022/10/26 02:54:53;;;;;;;57.37;28.30;;;;;;;10.75;100.00;100098.66;4165857;28;20244;-78
2022/10/26 02:57:23;;;;;;;52.33;28.27;;;;;;;10.81;100.00;100097.19;4201515;28;20234;-77
2022/10/26 02:59:50;;;;;;;59.73;28.70;;;;;;;10.81;100.00;100103.34;4170700;28;21257;-81
2022/10/26 03:02:18;;;;;;;55.83;28.03;;;;;;;10.80;100.00;100104.34;4156210;28;20235;-81
2022/10/26 03:04:46;;;;;;;55.07;28.00;;;;;;;10.80;100.00;100103.53;4196645;28;20303;-78
2022/10/26 03:07:12;;;;;;;61.23;28.87;;;;;;;10.73;100.00;100097.97;4211102;28;20471;-77
2022/10/26 03:09:39;;;;;;;55.87;28.27;;;;;;;10.71;100.00;100110.59;4229010;28;20235;-78
2022/10/26 03:12:05;;;;;;;66.57;30.10;;;;;;;10.72;100.00;100112.25;4217779;28;20240;-80
2022/10/26 03:14:32;;;;;;;61.10;30.63;;;;;;;10.68;100.00;100110.91;4191262;28;20306;-78
2022/10/26 03:16:59;;;;;;;60.73;29.33;;;;;;;10.70;100.00;100106.25;4210242;28;20389;-78
2022/10/26 03:19:25;;;;;;;55.70;29.10;;;;;;;10.74;100.00;100110.28;4216465;28;21765;-78
2022/10/26 03:21:52;;;;;;;60.77;30.13;;;;;;;10.65;100.00;100111.22;4224751;28;21030;-81
2022/10/26 03:24:18;;;;;;;60.20;29.57;;;;;;;10.73;100.00;100121.94;4186436;28;20791;-80
2022/10/26 03:26:45;;;;;;;64.27;29.23;;;;;;;10.65;100.00;100127.19;4220119;28;20712;-80
2022/10/26 03:29:12;;;;;;;65.87;30.70;;;;;;;10.64;100.00;100125.50;4230542;28;20530;-81
2022/10/26 03:31:38;;;;;;;68.03;30.20;;;;;;;10.64;100.00;100118.38;4212769;28;20240;-79
2022/10/26 03:34:05;;;;;;;59.73;29.23;;;;;;;10.70;100.00;100123.09;4209844;28;25780;-79
2022/10/26 03:36:31;;;;;;;60.23;29.50;;;;;;;10.71;100.00;100124.75;4213027;28;20232;-79
2022/10/26 03:38:58;;;;;;;66.77;31.00;;;;;;;10.62;100.00;100130.16;4235806;28;20288;-80
2022/10/26 03:41:24;;;;;;;63.60;30.53;;;;;;;10.64;100.00;100130.84;4236527;28;20239;-82
2022/10/26 03:43:51;;;;;;;62.77;30.40;;;;;;;10.62;100.00;100133.63;4194359;28;20634;-78
2022/10/26 03:46:17;;;;;;;60.73;30.57;;;;;;;10.65;100.00;100137.81;4219564;28;22861;-79
2022/10/26 03:48:44;;;;;;;64.73;29.70;;;;;;;10.61;100.00;100136.47;4218838;28;20631;-78
2022/10/26 03:51:10;;;;;;;61.67;29.70;;;;;;;10.68;100.00;100146.34;4209804;28;20460;-79
2022/10/26 03:53:37;;;;;;;60.40;28.33;;;;;;;10.62;100.00;100143.44;4215038;28;20246;-79
2022/10/26 03:56:04;;;;;;;58.17;29.03;;;;;;;10.66;100.00;100147.50;4214163;28;20341;-78
2022/10/26 03:58:31;;;;;;;58.67;30.30;;;;;;;10.60;100.00;100142.78;4228651;28;20402;-77
2022/10/26 04:00:58;;;;;;;60.77;29.63;;;;;;;10.62;100.00;100140.78;4210400;28;20233;-81
2022/10/26 04:03:24;;;;;;;56.37;29.07;;;;;;;10.65;100.00;100138.69;4214567;28;20237;-81
2022/10/26 04:05:51;;;;;;;60.03;30.60;;;;;;;10.62;100.00;100138.97;4186141;28;20396;-81
2022/10/26 04:08:17;;;;;;;64.93;28.53;;;;;;;10.66;100.00;100139.50;4202311;28;20243;-79
2022/10/26 04:10:45;;;;;;;64.30;29.77;;;;;;;10.71;100.00;100131.91;4188649;28;20259;-83
2022/10/26 04:13:12;;;;;;;58.23;28.97;;;;;;;10.69;100.00;100139.19;4167456;28;20906;-80
2022/10/26 04:15:38;;;;;;;58.50;27.80;;;;;;;10.68;100.00;100149.00;4197750;28;20241;-79
2022/10/26 04:18:05;;;;;;;59.97;29.67;;;;;;;10.67;100.00;100141.16;4196602;28;20332;-79
2022/10/26 04:20:32;;;;;;;55.37;27.33;;;;;;;10.66;100.00;100144.81;4198429;28;20340;-82
2022/10/26 04:23:01;;;;;;;53.07;27.00;;;;;;;10.61;100.00;100141.78;4195606;28;22101;-81
2022/10/26 04:25:29;;;;;;;61.10;27.50;;;;;;;10.63;100.00;100150.44;4200157;28;20853;-83
2022/10/26 04:27:59;;;;;;;57.77;27.70;;;;;;;10.62;100.00;100148.78;4183436;28;20242;-80
2022/10/26 04:30:26;;;;;;;49.47;27.50;;;;;;;10.64;100.00;100152.13;4196787;28;20230;-80
2022/10/26 04:32:52;;;;;;;54.83;28.73;;;;;;;10.57;100.00;100143.91;4172674;28;21327;-80
2022/10/26 04:35:19;;;;;;;56.97;27.20;;;;;;;10.61;100.00;100149.78;4200590;28;20296;-78
2022/10/26 04:37:45;;;;;;;50.33;27.80;;;;;;;10.54;100.00;100145.06;4188625;28;22476;-80
2022/10/26 04:40:12;;;;;;;53.60;27.67;;;;;;;10.56;100.00;100148.41;4177958;28;20230;-78
2022/10/26 04:42:46;;;;;;;58.50;28.23;;;;;;;10.53;100.00;100150.50;4176907;28;20664;-78
2022/10/26 04:45:15;;;;;;;52.80;26.77;;;;;;;10.55;100.00;100164.50;4192682;28;21149;-78
2022/10/26 04:47:43;;;;;;;53.87;28.00;;;;;;;10.52;100.00;100154.19;4181143;28;21846;-79
2022/10/26 04:50:11;;;;;;;54.43;28.53;;;;;;;10.50;100.00;100156.16;4191672;28;20230;-78
2022/10/26 04:52:38;;;;;;;58.57;28.37;;;;;;;10.48;100.00;100161.59;4192947;28;22334;-80
2022/10/26 04:55:06;;;;;;;54.70;27.60;;;;;;;10.50;100.00;100166.78;4194497;28;20245;-80
2022/10/26 04:57:33;;;;;;;60.53;29.07;;;;;;;10.53;100.00;100167.31;4182941;28;20244;-81
2022/10/26 05:00:00;;;;;;;56.83;28.43;;;;;;;10.50;100.00;100172.09;4195302;28;23514;-81
2022/10/26 05:02:27;;;;;;;61.30;28.80;;;;;;;10.43;100.00;100166.56;4169832;28;20404;-82
2022/10/26 05:04:54;;;;;;;66.37;29.93;;;;;;;10.46;100.00;100171.56;4191529;28;22043;-80
2022/10/26 05:07:20;;;;;;;63.27;30.63;;;;;;;10.51;100.00;100168.44;4194530;28;20236;-80
2022/10/26 05:09:47;;;;;;;60.13;29.70;;;;;;;10.52;100.00;100176.28;4188221;28;20277;-83
2022/10/26 05:12:13;;;;;;;58.20;28.50;;;;;;;10.50;100.00;100188.91;4173082;28;20241;-79
2022/10/26 05:14:40;;;;;;;59.20;29.27;;;;;;;10.50;100.00;100188.91;4181157;28;20737;-80
2022/10/26 05:17:06;;;;;;;62.13;28.60;;;;;;;10.56;100.00;100187.47;4186162;28;20371;-79
2022/10/26 05:19:33;;;;;;;60.13;27.97;;;;;;;10.55;100.00;100191.94;4175586;28;20283;-79
2022/10/26 05:21:59;;;;;;;57.83;27.70;;;;;;;10.56;100.00;100188.31;4186334;28;20229;-79
2022/10/26 05:24:26;;;;;;;58.87;28.23;;;;;;;10.52;100.00;100194.91;4189112;28;20594;-79
2022/10/26 05:26:52;;;;;;;61.63;27.37;;;;;;;10.53;100.00;100196.56;4179418;28;20234;-79
2022/10/26 05:29:19;;;;;;;64.07;26.37;;;;;;;10.48;100.00;100201.50;4191532;28;20525;-79
2022/10/26 05:31:45;;;;;;;54.73;26.33;;;;;;;10.57;100.00;100202.44;4180298;28;22895;-79
2022/10/26 05:34:12;;;;;;;50.50;25.47;;;;;;;10.61;100.00;100211.81;4182181;28;20782;-72
2022/10/26 05:36:39;;;;;;;62.13;26.80;;;;;;;10.60;100.00;100210.13;4178668;28;20277;-73
2022/10/26 05:39:05;;;;;;;56.57;26.40;;;;;;;10.56;100.00;100209.59;4180099;28;20560;-74
2022/10/26 05:41:31;;;;;;;62.17;26.30;;;;;;;10.56;100.00;100214.91;4187743;28;20241;-72
2022/10/26 05:43:58;;;;;;;57.20;26.23;;;;;;;10.49;100.00;100215.69;4171141;28;20236;-71
2022/10/26 05:46:24;;;;;;;57.77;26.53;;;;;;;10.54;100.00;100221.38;4202508;28;21203;-72
2022/10/26 05:48:51;;;;;;;61.93;26.33;;;;;;;10.62;100.00;100217.97;4185602;28;20320;-72
2022/10/26 05:51:18;;;;;;;58.80;26.53;;;;;;;10.48;100.00;100220.13;4209216;28;20245;-72
2022/10/26 05:53:44;;;;;;;62.40;27.50;;;;;;;10.46;100.00;100223.94;4210350;28;20244;-69
2022/10/26 05:56:19;;;;;;;57.60;27.23;;;;;;;10.50;100.00;100226.16;4203217;28;20313;-65
2022/10/26 05:58:47;;;;;;;58.90;26.70;;;;;;;10.49;100.00;100223.66;4202591;28;20272;-66
2022/10/26 06:01:48;;;;;;;61.47;27.60;;;;;;;10.48;100.00;100228.13;4191745;28;20351;-63
2022/10/26 06:04:37;;;;;;;63.27;26.60;;;;;;;10.47;100.00;100231.78;4206380;28;20349;-64
2022/10/26 06:07:10;;;;;;;56.77;24.37;;;;;;;10.46;100.00;100230.09;4171166;28;20248;-68
2022/10/26 06:09:37;;;;;;;59.03;25.80;;;;;;;10.49;100.00;100232.47;4173144;28;20240;-67
2022/10/26 06:12:06;;;;;;;48.80;23.93;;;;;;;10.46;100.00;100243.38;4182907;28;20475;-69
2022/10/26 06:14:33;;;;;;;48.87;23.70;;;;;;;10.49;100.00;100245.78;4187104;28;20238;-67
2022/10/26 06:17:09;;;;;;;54.83;24.83;;;;;;;10.46;100.00;100240.72;4170834;28;20246;-65
2022/10/26 06:19:46;;;;;;;51.80;23.47;;;;;;;10.54;100.00;100242.66;4185306;28;20234;-66
2022/10/26 06:22:20;;;;;;;49.90;22.70;;;;;;;10.66;100.00;100245.94;4173576;28;20542;-67
2022/10/26 06:24:56;;;;;;;51.57;22.43;;;;;;;10.71;100.00;100244.50;4177241;28;20241;-67
2022/10/26 06:27:45;;;;;;;48.53;22.23;;;;;;;10.74;100.00;100244.19;4177455;28;20234;-67
2022/10/26 06:30:12;;;;;;;44.13;21.07;;;;;;;10.76;100.00;100249.38;4184008;28;20280;-66
2022/10/26 06:32:40;;;;;;;44.67;22.73;;;;;;;10.67;100.00;100252.94;4182940;28;20290;-65
2022/10/26 06:35:32;;;;;;;47.93;20.87;;;;;;;10.71;100.00;100249.00;4194868;28;20241;-67
2022/10/26 06:38:02;;;;;;;45.10;19.13;;;;;;;10.72;100.00;100251.50;4185914;28;20238;-65
2022/10/26 06:40:31;;;;;;;43.27;20.50;;;;;;;10.76;100.00;100257.34;4193998;28;21409;-64
2022/10/26 06:42:59;;;;;;;44.43;19.73;;;;;;;10.78;100.00;100266.03;4182370;28;20612;-65
2022/10/26 06:45:25;;;;;;;41.90;20.40;;;;;;;10.90;100.00;100264.81;4179176;28;20550;-66
2022/10/26 06:48:05;;;;;;;42.97;20.70;;;;;;;10.85;100.00;100267.09;4185165;28;20309;-70
2022/10/26 06:50:50;;;;;;;56.70;21.87;;;;;;;10.84;100.00;100269.91;4164609;28;21132;-64
2022/10/26 06:53:29;;;;;;;50.27;22.13;;;;;;;10.89;100.00;100271.16;4183927;28;20327;-65
2022/10/26 06:55:58;;;;;;;52.17;23.37;;;;;;;10.78;100.00;100264.19;4182465;28;20239;-64
2022/10/26 06:58:28;;;;;;;52.83;24.37;;;;;;;10.84;100.00;100269.91;4174732;28;20284;-64
2022/10/26 07:00:55;;;;;;;49.87;24.43;;;;;;;10.87;100.00;100270.47;4175185;28;20229;-65
2022/10/26 07:03:21;;;;;;;59.17;26.10;;;;;;;10.93;100.00;100269.88;4161027;28;22186;-64
2022/10/26 07:05:48;;;;;;;52.47;25.03;;;;;;;10.95;100.00;100267.84;4176974;28;20371;-64
2022/10/26 07:08:14;;;;;;;52.03;23.87;;;;;;;10.93;100.00;100272.53;4175807;28;20241;-63
2022/10/26 07:10:42;;;;;;;50.90;23.33;;;;;;;10.90;100.00;100272.81;4180411;28;20390;-70
2022/10/26 07:13:09;;;;;;;49.67;23.20;;;;;;;10.90;100.00;100280.78;4181342;28;20244;-64
2022/10/26 07:15:37;;;;;;;48.97;22.60;;;;;;;10.94;100.00;100282.16;4172602;28;20318;-63
2022/10/26 07:18:04;;;;;;;52.43;24.17;;;;;;;10.93;100.00;100279.66;4174663;28;20428;-65
2022/10/26 07:20:35;;;;;;;50.43;22.27;;;;;;;10.99;100.00;100284.38;4192691;28;20261;-67
2022/10/26 07:23:02;;;;;;;49.50;22.20;;;;;;;10.93;100.00;100284.97;4174553;28;25023;-65
2022/10/26 07:25:29;;;;;;;52.67;22.97;;;;;;;10.97;100.00;100284.53;4179879;28;20306;-65
2022/10/26 07:27:57;;;;;;;50.47;22.17;;;;;;;10.88;100.00;100287.25;4172131;28;20301;-69
2022/10/26 07:30:28;;;;;;;47.03;21.97;;;;;;;10.94;100.00;100287.50;4188286;28;20369;-67
2022/10/26 07:32:59;;;;;;;47.13;21.13;;;;;;;10.91;100.00;100293.13;4170606;28;20250;-81
2022/10/26 07:35:26;;;;;;;53.77;22.40;;;;;;;10.89;100.00;100292.44;4184163;28;20440;-75
2022/10/26 07:37:57;;;;;;;38.10;19.37;;;;;;;10.98;100.00;100294.19;4170013;28;20601;-69
2022/10/26 07:40:24;;;;;;;41.47;19.70;;;;;;;10.81;100.00;100300.31;4190564;28;20666;-72
2022/10/26 07:42:51;;;;;;;45.63;20.73;;;;;;;10.62;100.00;100290.63;4178179;28;20333;-71
2022/10/26 07:45:18;;;;;;;43.20;19.87;;;;;;;10.69;100.00;100294.38;4173627;28;23738;-69
2022/10/26 07:47:45;;;;;;;37.47;19.33;;;;;;;10.64;100.00;100291.34;4150463;28;20234;-68
2022/10/26 07:50:11;;;;;;;43.60;19.73;;;;;;;10.66;100.00;100299.19;4170587;28;20557;-69
2022/10/26 07:52:40;;;;;;;42.00;18.20;;;;;;;10.62;100.00;100287.16;4186735;28;20230;-69
2022/10/26 07:55:10;;;;;;;39.87;18.27;;;;;;;10.63;100.00;100294.13;4173651;28;20242;-69
2022/10/26 07:57:37;;;;;;;40.07;18.47;;;;;;;10.54;100.00;100294.03;4188573;28;21772;-68
2022/10/26 08:00:06;;;;;;;37.27;18.03;;;;;;;10.54;100.00;100302.03;4173028;28;20234;-69
2022/10/26 08:02:33;;;;;;;39.80;18.17;;;;;;;10.52;100.00;100311.97;4173213;28;20354;-67
2022/10/26 08:04:59;;;;;;;41.10;19.13;;;;;;;10.53;100.00;100312.81;4162259;28;25555;-68
2022/10/26 08:07:26;;;;;;;36.03;17.80;;;;;;;10.43;100.00;100314.69;4180444;28;20241;-69
2022/10/26 08:09:53;;;;;;;34.67;17.67;;;;;;;10.40;100.00;100320.31;4197223;28;20237;-66
2022/10/26 08:12:19;;;;;;;36.13;17.80;;;;;;;10.33;100.00;100322.72;4259853;28;20283;-68
2022/10/26 08:14:46;;;;;;;42.20;20.23;;;;;;;10.32;100.00;100318.38;4276018;28;21057;-68
2022/10/26 08:17:13;;;;;;;36.87;17.67;;;;;;;10.26;100.00;100324.25;4189971;28;20265;-67
2022/10/26 08:19:39;;;;;;;31.53;16.53;;;;;;;10.30;100.00;100330.97;4181078;28;20233;-65
2022/10/26 08:22:06;;;;;;;38.77;16.97;;;;;;;10.22;100.00;100329.00;4172848;28;22885;-71
2022/10/26 08:24:33;;;;;;;33.50;17.60;;;;;;;10.22;100.00;100330.84;4170914;28;23002;-69
2022/10/26 08:26:59;;;;;;;40.03;17.90;;;;;;;10.23;100.00;100321.88;4187733;28;20234;-71
2022/10/26 08:29:25;;;;;;;36.70;18.23;;;;;;;10.10;100.00;100320.38;4177817;28;20560;-69
2022/10/26 08:31:52;;;;;;;38.07;18.57;;;;;;;10.05;100.00;100317.31;4178040;28;20237;-77
2022/10/26 08:34:19;;;;;;;35.57;19.47;;;;;;;10.05;100.00;100325.28;4176869;28;20242;-65
2022/10/26 08:36:45;;;;;;;43.40;20.10;;;;;;;9.99;100.00;100320.53;4174582;28;20603;-66
2022/10/26 08:39:12;;;;;;;41.50;20.27;;;;;;;10.04;100.00;100320.94;4180393;28;21209;-68
2022/10/26 08:41:43;;;;;;;45.87;20.43;;;;;;;10.10;100.00;100322.19;4193569;28;20244;-72
2022/10/26 08:44:18;;;;;;;44.87;19.93;;;;;;;10.20;100.00;100330.16;4180736;28;20847;-71
2022/10/26 08:46:49;;;;;;;41.47;20.37;;;;;;;10.22;100.00;100328.19;4187824;28;20234;-70
2022/10/26 08:49:19;;;;;;;42.27;18.93;;;;;;;10.19;100.00;100333.81;4180235;28;20332;-69
2022/10/26 08:51:48;;;;;;;48.27;19.60;;;;;;;10.17;100.00;100331.28;4175539;28;20234;-69
2022/10/26 08:54:21;;;;;;;44.40;19.90;;;;;;;10.21;100.00;100337.13;4176069;28;20244;-69
2022/10/26 08:56:51;;;;;;;43.90;20.70;;;;;;;10.24;100.00;100342.19;4172553;28;20512;-70
2022/10/26 08:59:34;;;;;;;47.17;21.73;;;;;;;10.33;100.00;100344.81;4174393;28;22054;-71
2022/10/26 09:02:01;;;;;;;45.40;22.40;;;;;;;10.43;100.00;100347.44;4169525;28;20338;-69
2022/10/26 09:04:31;;;;;;;50.67;21.17;;;;;;;10.63;100.00;100344.69;4179382;28;20311;-69
2022/10/26 09:07:26;;;;;;;40.13;19.67;;;;;;;10.54;100.00;100341.13;4179790;28;20230;-68
2022/10/26 09:10:26;;;;;;;41.73;20.17;;;;;;;10.63;100.00;100345.56;4180623;28;20239;-68
2022/10/26 09:13:05;;;;;;;40.20;19.20;;;;;;;10.69;100.00;100346.78;4183629;28;20344;-69
2022/10/26 09:15:56;;;;;;;42.23;18.97;;;;;;;10.71;100.00;100356.28;4165609;28;20322;-69
2022/10/26 09:18:53;;;;;;;38.37;19.97;;;;;;;10.70;100.00;100364.41;4167845;28;20245;-70
2022/10/26 09:21:28;;;;;;;43.83;19.70;;;;;;;10.72;100.00;100357.97;4188675;28;20324;-70
2022/10/26 09:24:27;;;;;;;40.20;20.10;;;;;;;10.91;100.00;100367.69;4171324;28;20260;-70
2022/10/26 09:27:02;;;;;;;37.27;19.83;;;;;;;10.92;100.00;100369.34;4165900;28;20235;-69
2022/10/26 09:29:31;;;;;;;36.83;18.07;;;;;;;10.95;100.00;100369.03;4173937;28;20372;-69
2022/10/26 09:31:59;;;;;;;32.67;16.60;;;;;;;10.92;100.00;100379.16;4184061;28;20237;-69
2022/10/26 09:34:36;;;;;;;36.80;17.93;;;;;;;11.03;100.00;100376.28;4176947;28;20397;-70
2022/10/26 09:37:22;;;;;;;37.13;17.90;;;;;;;11.01;100.00;100388.09;4177863;28;20239;-70
2022/10/26 09:40:04;;;;;;;37.70;18.20;;;;;;;11.13;100.00;100386.88;4180868;28;20383;-70
2022/10/26 09:42:38;;;;;;;38.43;18.00;;;;;;;11.11;100.00;100388.84;4177203;28;22955;-68
2022/10/26 09:45:51;;;;;;;34.07;17.50;;;;;;;10.97;100.00;100396.34;4181809;28;20356;-69
2022/10/26 09:48:44;;;;;;;36.83;16.93;;;;;;;11.16;100.00;100392.72;4168841;28;20347;-69
2022/10/26 09:51:11;;;;;;;35.60;17.47;;;;;;;11.19;100.00;100391.59;4175361;28;20240;-70
2022/10/26 09:53:37;;;;;;;30.37;16.47;;;;;;;11.30;100.00;100390.56;4188784;28;20301;-72
2022/10/26 09:56:09;;;;;;;30.37;15.93;;;;;;;11.14;100.00;100393.88;4179389;28;23466;-70
2022/10/26 09:59:03;;;;;;;31.70;16.77;;;;;;;11.14;100.00;100399.19;4174146;28;20229;-70
2022/10/26 10:01:34;;;;;;;32.03;16.67;;;;;;;11.16;100.00;100405.22;4178948;28;22134;-68
2022/10/26 10:04:13;;;;;;;36.03;16.73;;;;;;;11.13;100.00;100408.19;4188675;28;20596;-68
2022/10/26 10:06:40;;;;;;;37.63;17.63;;;;;;;11.34;100.00;100406.09;4199805;28;22060;-74
2022/10/26 10:09:14;;;;;;;38.53;17.27;;;;;;;11.36;100.00;100403.28;4196819;28;21465;-70
2022/10/26 10:11:53;;;;;;;36.00;17.30;;;;;;;11.37;100.00;100400.44;4194577;28;20291;-45
2022/10/26 10:14:22;;;;;;;40.70;17.87;;;;;;;11.49;100.00;100409.06;4193243;28;20323;-60
2022/10/26 10:17:00;;;;;;;35.47;17.10;;;;;;;11.58;100.00;100412.66;4188518;28;20238;-44
2022/10/26 10:19:29;;;;;;;37.57;18.37;;;;;;;11.68;100.00;100410.72;4214641;28;20331;-63
2022/10/26 10:22:01;;;;;;;30.00;16.00;;;;;;;11.81;100.00;100397.03;4187388;28;21747;-70
2022/10/26 10:24:32;;;;;;;31.70;17.23;;;;;;;11.72;100.00;100397.94;4175291;28;20235;-69
2022/10/26 10:27:15;;;;;;;37.03;18.13;;;;;;;11.73;100.00;100395.13;4188148;28;21979;-70
2022/10/26 10:29:43;;;;;;;39.10;18.07;;;;;;;11.81;100.00;100389.03;4199800;28;20237;-69
2022/10/26 10:32:21;;;;;;;37.53;19.57;;;;;;;11.79;100.00;100399.84;4200854;28;20657;-69
2022/10/26 10:34:49;;;;;;;41.57;19.40;;;;;;;11.74;100.00;100388.81;4190414;28;23156;-68
2022/10/26 10:37:24;;;;;;;39.87;20.37;;;;;;;11.81;100.00;100386.38;4197558;28;20772;-67
2022/10/26 10:39:56;;;;;;;42.53;21.47;;;;;;;11.92;100.00;100393.31;4199502;28;20395;-69
2022/10/26 10:42:26;;;;;;;44.37;20.53;;;;;;;12.01;100.00;100403.03;4196399;28;20354;-68
2022/10/26 10:44:54;;;;;;;38.77;20.23;;;;;;;12.04;100.00;100397.41;4199073;28;20254;-69
2022/10/26 10:47:23;;;;;;;43.73;20.03;;;;;;;11.96;100.00;100394.66;4204426;28;22979;-70
2022/10/26 10:50:13;;;;;;;36.57;18.80;;;;;;;11.92;100.00;100386.16;4193335;28;20583;-69
2022/10/26 10:52:40;;;;;;;38.13;17.93;;;;;;;11.93;100.00;100389.66;4203189;28;21758;-70
2022/10/26 10:55:27;;;;;;;35.67;18.87;;;;;;;11.96;100.00;100390.19;4193538;28;20296;-70
2022/10/26 10:58:07;;;;;;;33.83;18.53;;;;;;;12.02;100.00;100397.56;4203648;28;20589;-70
2022/10/26 11:00:35;;;;;;;40.63;20.17;;;;;;;12.15;100.00;100399.84;4206386;28;20236;-69
2022/10/26 11:03:22;;;;;;;33.63;18.70;;;;;;;12.32;100.00;100399.94;4197113;28;20939;-70
2022/10/26 11:06:16;;;;;;;42.00;20.30;;;;;;;12.37;100.00;100398.47;4194390;28;20729;-68
2022/10/26 11:08:50;;;;;;;37.47;20.23;;;;;;;12.40;100.00;100398.13;4202058;28;21775;-69
2022/10/26 11:11:24;;;;;;;43.23;20.30;;;;;;;12.36;100.00;100390.59;4193149;28;20248;-69
2022/10/26 11:13:55;;;;;;;38.37;18.60;;;;;;;12.32;100.00;100403.44;4198100;28;20273;-69
2022/10/26 11:16:26;;;;;;;30.20;16.10;;;;;;;12.25;100.00;100405.91;4185683;28;20241;-68
2022/10/26 11:18:58;;;;;;;28.93;16.07;;;;;;;12.12;100.00;100408.13;4187326;28;20323;-68
2022/10/26 11:21:27;;;;;;;30.93;14.47;;;;;;;12.12;100.00;100410.78;4194294;28;20529;-67